sensor_id;sensor_type;location;lat;lon;timestamp;pressure;altitude;pressure_sealevel;temperature;humidity
35419;BME280;21525;41.240;16.500;2022-08-11T00:00:45;101227.94;;;33.00;57.76
35419;BME280;21525;41.240;16.500;2022-08-11T00:03:13;101235.44;;;33.06;57.13
35419;BME280;21525;41.240;16.500;2022-08-11T00:05:45;101230.78;;;32.81;57.82
35419;BME280;21525;41.240;16.500;2022-08-11T00:08:27;101238.63;;;32.92;57.86
35419;BME280;21525;41.240;16.500;2022-08-11T00:10:56;101243.19;;;32.91;57.59
35419;BME280;21525;41.240;16.500;2022-08-11T00:13:44;101230.66;;;33.00;56.85
35419;BME280;21525;41.240;16.500;2022-08-11T00:16:17;101227.94;;;33.00;57.06
35419;BME280;21525;41.240;16.500;2022-08-11T00:18:49;101232.72;;;32.88;56.79
35419;BME280;21525;41.240;16.500;2022-08-11T00:21:16;101222.16;;;32.77;57.52
35419;BME280;21525;41.240;16.500;2022-08-11T00:23:45;101225.56;;;32.97;56.67
35419;BME280;21525;41.240;16.500;2022-08-11T00:26:14;101220.50;;;32.66;57.43
35419;BME280;21525;41.240;16.500;2022-08-11T00:28:41;101221.69;;;32.82;57.14
35419;BME280;21525;41.240;16.500;2022-08-11T00:31:20;101227.97;;;32.72;57.63
35419;BME280;21525;41.240;16.500;2022-08-11T00:33:46;101222.22;;;32.85;57.00
35419;BME280;21525;41.240;16.500;2022-08-11T00:36:15;101217.38;;;32.89;57.02
35419;BME280;21525;41.240;16.500;2022-08-11T00:38:44;101218.94;;;32.36;58.36
35419;BME280;21525;41.240;16.500;2022-08-11T00:46:41;101212.53;;;32.75;57.05
35419;BME280;21525;41.240;16.500;2022-08-11T00:49:29;101216.34;;;32.72;57.01
35419;BME280;21525;41.240;16.500;2022-08-11T01:00:23;101221.38;;;32.20;58.95
35419;BME280;21525;41.240;16.500;2022-08-11T01:08:35;101215.91;;;32.49;57.94
35419;BME280;21525;41.240;16.500;2022-08-11T01:48:38;101209.34;;;32.34;58.09
35419;BME280;21525;41.240;16.500;2022-08-11T01:56:37;101206.22;;;32.56;57.74
35419;BME280;21525;41.240;16.500;2022-08-11T02:04:28;101198.03;;;31.64;60.39
35419;BME280;21525;41.240;16.500;2022-08-11T02:12:39;101203.31;;;32.13;58.91
35419;BME280;21525;41.240;16.500;2022-08-11T02:18:08;101205.69;;;31.69;60.91
35419;BME280;21525;41.240;16.500;2022-08-11T02:20:44;101195.09;;;31.67;61.38
35419;BME280;21525;41.240;16.500;2022-08-11T02:23:40;101190.66;;;31.66;60.74
35419;BME280;21525;41.240;16.500;2022-08-11T02:26:19;101183.09;;;31.43;62.02
35419;BME280;21525;41.240;16.500;2022-08-11T02:43:13;101180.53;;;31.02;64.24
35419;BME280;21525;41.240;16.500;2022-08-11T02:45:51;101185.63;;;31.25;63.76
35419;BME280;21525;41.240;16.500;2022-08-11T03:06:49;101190.63;;;30.60;65.62
35419;BME280;21525;41.240;16.500;2022-08-11T03:12:10;101175.25;;;31.59;62.30
35419;BME280;21525;41.240;16.500;2022-08-11T03:15:15;101178.81;;;31.69;62.00
35419;BME280;21525;41.240;16.500;2022-08-11T03:18:22;101183.50;;;31.48;62.04
35419;BME280;21525;41.240;16.500;2022-08-11T03:21:19;101179.81;;;31.68;61.75
35419;BME280;21525;41.240;16.500;2022-08-11T03:24:00;101182.78;;;31.07;64.52
35419;BME280;21525;41.240;16.500;2022-08-11T03:26:42;101187.72;;;31.60;62.05
35419;BME280;21525;41.240;16.500;2022-08-11T03:31:43;101189.88;;;31.47;62.64
35419;BME280;21525;41.240;16.500;2022-08-11T03:34:27;101192.28;;;31.50;62.09
35419;BME280;21525;41.240;16.500;2022-08-11T03:39:41;101197.91;;;31.76;61.38
35419;BME280;21525;41.240;16.500;2022-08-11T04:04:17;101198.38;;;31.13;63.75
35419;BME280;21525;41.240;16.500;2022-08-11T04:18:49;101201.97;;;31.89;60.78
35419;BME280;21525;41.240;16.500;2022-08-11T04:24:26;101214.06;;;32.13;59.57
35419;BME280;21525;41.240;16.500;2022-08-11T04:41:52;101197.84;;;35.59;48.02
35419;BME280;21525;41.240;16.500;2022-08-11T04:48:05;101200.72;;;36.37;45.17
35419;BME280;21525;41.240;16.500;2022-08-11T05:07:28;101196.38;;;38.03;41.07
35419;BME280;21525;41.240;16.500;2022-08-11T05:12:59;101203.81;;;38.23;40.03
35419;BME280;21525;41.240;16.500;2022-08-11T05:15:52;101200.69;;;38.41;40.42
35419;BME280;21525;41.240;16.500;2022-08-11T05:18:54;101210.59;;;39.70;38.11
35419;BME280;21525;41.240;16.500;2022-08-11T05:21:41;101206.94;;;39.35;37.92
35419;BME280;21525;41.240;16.500;2022-08-11T05:24:34;101208.47;;;39.93;37.64
35419;BME280;21525;41.240;16.500;2022-08-11T05:27:26;101210.88;;;39.33;38.09
35419;BME280;21525;41.240;16.500;2022-08-11T05:30:14;101207.13;;;39.83;37.42
35419;BME280;21525;41.240;16.500;2022-08-11T05:33:04;101213.38;;;40.11;36.20
35419;BME280;21525;41.240;16.500;2022-08-11T05:35:59;101215.19;;;40.80;35.64
35419;BME280;21525;41.240;16.500;2022-08-11T05:38:29;101211.53;;;40.59;35.77
35419;BME280;21525;41.240;16.500;2022-08-11T05:41:21;101216.50;;;40.43;35.51
35419;BME280;21525;41.240;16.500;2022-08-11T05:44:06;101217.13;;;41.12;34.89
35419;BME280;21525;41.240;16.500;2022-08-11T05:46:53;101217.19;;;40.58;35.59
35419;BME280;21525;41.240;16.500;2022-08-11T05:49:38;101217.97;;;41.85;33.47
35419;BME280;21525;41.240;16.500;2022-08-11T05:52:27;101220.50;;;41.54;33.52
35419;BME280;21525;41.240;16.500;2022-08-11T05:55:14;101211.91;;;41.70;33.31
35419;BME280;21525;41.240;16.500;2022-08-11T05:58:07;101215.19;;;42.63;32.15
35419;BME280;21525;41.240;16.500;2022-08-11T06:00:44;101215.66;;;41.89;33.18
35419;BME280;21525;41.240;16.500;2022-08-11T06:03:24;101213.50;;;42.17;32.56
35419;BME280;21525;41.240;16.500;2022-08-11T06:05:51;101215.31;;;42.43;32.82
35419;BME280;21525;41.240;16.500;2022-08-11T06:08:18;101208.63;;;43.09;31.85
35419;BME280;21525;41.240;16.500;2022-08-11T06:10:59;101224.91;;;41.42;33.56
35419;BME280;21525;41.240;16.500;2022-08-11T06:13:26;101226.84;;;40.67;34.71
35419;BME280;21525;41.240;16.500;2022-08-11T06:15:52;101214.63;;;41.64;33.84
35419;BME280;21525;41.240;16.500;2022-08-11T06:18:20;101221.75;;;40.44;35.23
35419;BME280;21525;41.240;16.500;2022-08-11T06:20:49;101222.44;;;40.59;34.99
35419;BME280;21525;41.240;16.500;2022-08-11T06:23:17;101213.94;;;40.00;36.53
35419;BME280;21525;41.240;16.500;2022-08-11T06:25:48;101220.34;;;40.68;35.27
35419;BME280;21525;41.240;16.500;2022-08-11T06:28:15;101214.97;;;39.92;36.40
35419;BME280;21525;41.240;16.500;2022-08-11T06:30:44;101222.81;;;39.53;37.19
35419;BME280;21525;41.240;16.500;2022-08-11T06:33:14;101220.09;;;39.53;37.00
35419;BME280;21525;41.240;16.500;2022-08-11T06:41:06;101223.22;;;40.47;36.17
35419;BME280;21525;41.240;16.500;2022-08-11T06:44:04;101226.22;;;39.40;36.73
35419;BME280;21525;41.240;16.500;2022-08-11T06:46:34;101230.84;;;40.23;36.25
35419;BME280;21525;41.240;16.500;2022-08-11T06:49:05;101230.00;;;40.23;36.04
35419;BME280;21525;41.240;16.500;2022-08-11T06:51:33;101220.97;;;40.16;35.91
35419;BME280;21525;41.240;16.500;2022-08-11T06:54:03;101230.81;;;41.25;34.82
35419;BME280;21525;41.240;16.500;2022-08-11T06:56:37;101226.72;;;40.34;35.28
35419;BME280;21525;41.240;16.500;2022-08-11T06:59:23;101227.28;;;40.71;34.96
35419;BME280;21525;41.240;16.500;2022-08-11T07:02:16;101220.44;;;40.88;34.70
35419;BME280;21525;41.240;16.500;2022-08-11T07:04:55;101221.53;;;41.13;34.68
35419;BME280;21525;41.240;16.500;2022-08-11T07:13:35;101223.59;;;41.05;34.61
35419;BME280;21525;41.240;16.500;2022-08-11T07:16:26;101220.44;;;40.88;34.65
35419;BME280;21525;41.240;16.500;2022-08-11T07:19:01;101215.06;;;41.54;34.13
35419;BME280;21525;41.240;16.500;2022-08-11T07:21:47;101219.88;;;41.65;33.88
35419;BME280;21525;41.240;16.500;2022-08-11T07:24:40;101225.31;;;41.12;34.00
35419;BME280;21525;41.240;16.500;2022-08-11T07:27:30;101225.13;;;41.86;33.02
35419;BME280;21525;41.240;16.500;2022-08-11T07:30:16;101222.41;;;41.80;33.48
35419;BME280;21525;41.240;16.500;2022-08-11T07:32:54;101219.47;;;41.68;33.39
35419;BME280;21525;41.240;16.500;2022-08-11T07:35:29;101215.06;;;41.41;33.17
35419;BME280;21525;41.240;16.500;2022-08-11T07:38:01;101205.94;;;42.13;32.75
35419;BME280;21525;41.240;16.500;2022-08-11T07:40:29;101216.75;;;41.55;33.15
35419;BME280;21525;41.240;16.500;2022-08-11T07:42:56;101219.88;;;41.65;33.18
35419;BME280;21525;41.240;16.500;2022-08-11T07:45:23;101232.69;;;41.51;33.40
35419;BME280;21525;41.240;16.500;2022-08-11T07:48:09;101218.19;;;41.77;32.73
35419;BME280;21525;41.240;16.500;2022-08-11T07:50:54;101221.97;;;41.83;32.73
35419;BME280;21525;41.240;16.500;2022-08-11T07:53:39;101232.47;;;41.40;33.17
35419;BME280;21525;41.240;16.500;2022-08-11T07:56:06;101229.13;;;41.71;32.97
35419;BME280;21525;41.240;16.500;2022-08-11T07:58:34;101228.50;;;41.22;33.43
35419;BME280;21525;41.240;16.500;2022-08-11T08:01:24;101220.31;;;41.62;32.96
35419;BME280;21525;41.240;16.500;2022-08-11T08:04:14;101226.81;;;41.81;32.62
35419;BME280;21525;41.240;16.500;2022-08-11T08:07:02;101219.03;;;41.84;32.65
35419;BME280;21525;41.240;16.500;2022-08-11T08:09:48;101226.97;;;41.92;32.79
35419;BME280;21525;41.240;16.500;2022-08-11T08:12:33;101233.13;;;41.75;33.11
35419;BME280;21525;41.240;16.500;2022-08-11T08:15:20;101235.00;;;41.48;33.35
35419;BME280;21525;41.240;16.500;2022-08-11T08:18:06;101227.44;;;41.63;33.43
35419;BME280;21525;41.240;16.500;2022-08-11T08:20:47;101228.91;;;41.72;32.92
35419;BME280;21525;41.240;16.500;2022-08-11T08:23:18;101224.06;;;41.87;32.85
35419;BME280;21525;41.240;16.500;2022-08-11T08:26:07;101233.94;;;41.88;32.51
35419;BME280;21525;41.240;16.500;2022-08-11T08:28:55;101237.09;;;41.46;33.09
35419;BME280;21525;41.240;16.500;2022-08-11T08:31:42;101230.72;;;40.86;33.49
35419;BME280;21525;41.240;16.500;2022-08-11T08:34:09;101230.34;;;41.15;33.07
35419;BME280;21525;41.240;16.500;2022-08-11T08:36:36;101235.56;;;41.10;32.93
35419;BME280;21525;41.240;16.500;2022-08-11T08:39:02;101231.16;;;41.09;33.04
35419;BME280;21525;41.240;16.500;2022-08-11T08:41:29;101225.13;;;41.60;33.09
35419;BME280;21525;41.240;16.500;2022-08-11T08:44:00;101225.34;;;41.45;33.01
35419;BME280;21525;41.240;16.500;2022-08-11T08:46:58;101224.09;;;41.61;32.68
35419;BME280;21525;41.240;16.500;2022-08-11T08:49:35;101221.75;;;41.91;32.67
35419;BME280;21525;41.240;16.500;2022-08-11T08:52:04;101216.72;;;41.62;33.29
35419;BME280;21525;41.240;16.500;2022-08-11T08:54:35;101218.19;;;41.44;33.96
35419;BME280;21525;41.240;16.500;2022-08-11T08:57:05;101218.22;;;40.63;35.05
35419;BME280;21525;41.240;16.500;2022-08-11T08:59:34;101221.50;;;40.87;34.66
35419;BME280;21525;41.240;16.500;2022-08-11T09:02:04;101214.41;;;41.45;33.94
35419;BME280;21525;41.240;16.500;2022-08-11T09:04:31;101219.16;;;39.67;37.16
35419;BME280;21525;41.240;16.500;2022-08-11T09:06:59;101214.59;;;39.74;36.21
35419;BME280;21525;41.240;16.500;2022-08-11T09:09:28;101214.09;;;39.64;36.51
35419;BME280;21525;41.240;16.500;2022-08-11T09:11:56;101212.94;;;40.42;36.26
35419;BME280;21525;41.240;16.500;2022-08-11T09:14:37;101207.44;;;41.03;35.61
35419;BME280;21525;41.240;16.500;2022-08-11T09:17:22;101209.59;;;40.47;36.09
35419;BME280;21525;41.240;16.500;2022-08-11T09:19:53;101207.72;;;41.54;34.79
35419;BME280;21525;41.240;16.500;2022-08-11T09:22:27;101218.84;;;41.53;35.02
35419;BME280;21525;41.240;16.500;2022-08-11T09:25:12;101214.16;;;39.71;37.62
35419;BME280;21525;41.240;16.500;2022-08-11T09:27:59;101209.16;;;38.17;40.59
35419;BME280;21525;41.240;16.500;2022-08-11T09:30:26;101213.06;;;38.80;39.72
35419;BME280;21525;41.240;16.500;2022-08-11T09:32:55;101208.56;;;40.13;38.06
35419;BME280;21525;41.240;16.500;2022-08-11T09:35:25;101213.41;;;40.59;36.92
35419;BME280;21525;41.240;16.500;2022-08-11T09:37:54;101208.22;;;40.23;37.86
35419;BME280;21525;41.240;16.500;2022-08-11T09:40:42;101216.84;;;40.81;36.90
35419;BME280;21525;41.240;16.500;2022-08-11T09:43:10;101219.00;;;40.92;36.30
35419;BME280;21525;41.240;16.500;2022-08-11T09:45:57;101221.09;;;41.16;35.92
35419;BME280;21525;41.240;16.500;2022-08-11T09:48:24;101220.66;;;40.93;36.34
35419;BME280;21525;41.240;16.500;2022-08-11T09:50:54;101204.22;;;39.35;39.41
35419;BME280;21525;41.240;16.500;2022-08-11T09:53:23;101207.66;;;40.34;37.22
35419;BME280;21525;41.240;16.500;2022-08-11T09:55:50;101201.19;;;39.73;38.06
35419;BME280;21525;41.240;16.500;2022-08-11T09:58:17;101202.91;;;39.80;38.80
35419;BME280;21525;41.240;16.500;2022-08-11T10:00:50;101198.44;;;40.35;37.49
35419;BME280;21525;41.240;16.500;2022-08-11T10:03:20;101192.84;;;40.63;36.81
35419;BME280;21525;41.240;16.500;2022-08-11T10:06:21;101180.69;;;40.59;36.37
35419;BME280;21525;41.240;16.500;2022-08-11T10:08:59;101191.97;;;40.43;35.97
35419;BME280;21525;41.240;16.500;2022-08-11T10:11:26;101188.13;;;40.85;35.98
35419;BME280;21525;41.240;16.500;2022-08-11T10:13:53;101188.66;;;39.78;37.62
35419;BME280;21525;41.240;16.500;2022-08-11T10:16:39;101187.41;;;39.04;39.61
35419;BME280;21525;41.240;16.500;2022-08-11T10:19:06;101181.28;;;40.07;37.58
35419;BME280;21525;41.240;16.500;2022-08-11T10:21:43;101183.69;;;38.90;38.73
35419;BME280;21525;41.240;16.500;2022-08-11T10:24:30;101189.50;;;38.51;40.14
35419;BME280;21525;41.240;16.500;2022-08-11T10:27:16;101183.53;;;38.41;41.39
35419;BME280;21525;41.240;16.500;2022-08-11T10:29:43;101183.44;;;38.34;41.21
35419;BME280;21525;41.240;16.500;2022-08-11T10:32:29;101182.00;;;38.89;39.89
35419;BME280;21525;41.240;16.500;2022-08-11T10:35:15;101175.31;;;37.15;43.79
35419;BME280;21525;41.240;16.500;2022-08-11T10:37:42;101180.84;;;38.77;40.65
35419;BME280;21525;41.240;16.500;2022-08-11T10:40:13;101171.53;;;39.07;38.74
35419;BME280;21525;41.240;16.500;2022-08-11T10:42:41;101172.56;;;38.34;41.03
35419;BME280;21525;41.240;16.500;2022-08-11T10:45:30;101171.91;;;38.47;39.77
35419;BME280;21525;41.240;16.500;2022-08-11T10:48:17;101171.06;;;38.82;40.00
35419;BME280;21525;41.240;16.500;2022-08-11T10:50:47;101164.50;;;39.69;38.16
35419;BME280;21525;41.240;16.500;2022-08-11T10:53:33;101169.53;;;39.44;39.11
35419;BME280;21525;41.240;16.500;2022-08-11T10:56:19;101177.63;;;36.72;44.29
35419;BME280;21525;41.240;16.500;2022-08-11T10:59:05;101168.72;;;38.43;40.71
35419;BME280;21525;41.240;16.500;2022-08-11T11:01:40;101168.28;;;38.76;39.90
35419;BME280;21525;41.240;16.500;2022-08-11T11:04:14;101154.34;;;37.69;42.09
35419;BME280;21525;41.240;16.500;2022-08-11T11:09:27;101146.03;;;38.15;41.00
35419;BME280;21525;41.240;16.500;2022-08-11T11:12:06;101162.22;;;37.41;41.38
35419;BME280;21525;41.240;16.500;2022-08-11T11:14:53;101155.88;;;37.11;42.92
35419;BME280;21525;41.240;16.500;2022-08-11T11:18:06;101148.13;;;38.34;39.83
35419;BME280;21525;41.240;16.500;2022-08-11T11:26:36;101153.88;;;35.16;47.23
35419;BME280;21525;41.240;16.500;2022-08-11T11:35:03;101147.16;;;35.04;48.86
35419;BME280;21525;41.240;16.500;2022-08-11T11:37:35;101151.03;;;34.93;50.28
35419;BME280;21525;41.240;16.500;2022-08-11T11:40:13;101146.41;;;34.78;51.85
35419;BME280;21525;41.240;16.500;2022-08-11T11:42:43;101134.75;;;34.69;50.49
35419;BME280;21525;41.240;16.500;2022-08-11T11:45:11;101132.69;;;36.24;46.19
35419;BME280;21525;41.240;16.500;2022-08-11T11:47:40;101124.81;;;35.43;48.48
35419;BME280;21525;41.240;16.500;2022-08-11T11:50:07;101129.38;;;35.10;49.63
35419;BME280;21525;41.240;16.500;2022-08-11T11:52:34;101120.09;;;35.28;51.13
35419;BME280;21525;41.240;16.500;2022-08-11T11:55:01;101122.97;;;34.94;51.78
35419;BME280;21525;41.240;16.500;2022-08-11T11:57:29;101117.06;;;35.40;51.05
35419;BME280;21525;41.240;16.500;2022-08-11T12:00:14;101122.06;;;34.03;55.37
35419;BME280;21525;41.240;16.500;2022-08-11T12:03:01;101118.19;;;34.64;55.30
35419;BME280;21525;41.240;16.500;2022-08-11T12:05:30;101102.50;;;34.09;56.93
35419;BME280;21525;41.240;16.500;2022-08-11T12:07:58;101094.38;;;33.67;57.65
35419;BME280;21525;41.240;16.500;2022-08-11T12:10:42;101095.69;;;34.47;56.66
35419;BME280;21525;41.240;16.500;2022-08-11T12:13:09;101095.75;;;34.05;57.56
35419;BME280;21525;41.240;16.500;2022-08-11T12:15:54;101089.19;;;33.74;58.86
35419;BME280;21525;41.240;16.500;2022-08-11T12:18:20;101080.66;;;35.66;53.34
35419;BME280;21525;41.240;16.500;2022-08-11T12:20:46;101084.66;;;36.18;51.71
35419;BME280;21525;41.240;16.500;2022-08-11T12:23:13;101074.09;;;35.53;53.31
35419;BME280;21525;41.240;16.500;2022-08-11T12:25:58;101082.94;;;34.90;54.81
35419;BME280;21525;41.240;16.500;2022-08-11T12:28:44;101084.41;;;33.93;59.08
35419;BME280;21525;41.240;16.500;2022-08-11T12:31:11;101071.47;;;34.96;55.87
35419;BME280;21525;41.240;16.500;2022-08-11T12:33:38;101067.88;;;34.55;57.59
35419;BME280;21525;41.240;16.500;2022-08-11T12:36:07;101061.56;;;35.60;54.18
35419;BME280;21525;41.240;16.500;2022-08-11T12:38:42;101062.97;;;34.42;57.45
35419;BME280;21525;41.240;16.500;2022-08-11T12:41:09;101068.72;;;34.39;57.16
35419;BME280;21525;41.240;16.500;2022-08-11T12:43:55;101063.91;;;35.63;54.26
35419;BME280;21525;41.240;16.500;2022-08-11T12:46:44;101055.91;;;34.74;55.60
35419;BME280;21525;41.240;16.500;2022-08-11T12:49:11;101062.63;;;35.18;55.01
35419;BME280;21525;41.240;16.500;2022-08-11T12:52:01;101068.72;;;35.12;55.62
35419;BME280;21525;41.240;16.500;2022-08-11T13:00:14;101077.72;;;34.22;59.03
35419;BME280;21525;41.240;16.500;2022-08-11T13:03:00;101076.38;;;35.00;56.13
35419;BME280;21525;41.240;16.500;2022-08-11T13:05:46;101082.28;;;34.88;55.76
35419;BME280;21525;41.240;16.500;2022-08-11T13:08:13;101086.28;;;34.01;58.12
35419;BME280;21525;41.240;16.500;2022-08-11T13:10:41;101089.50;;;34.63;57.34
35419;BME280;21525;41.240;16.500;2022-08-11T13:13:26;101088.84;;;34.19;58.47
35419;BME280;21525;41.240;16.500;2022-08-11T13:15:53;101085.66;;;34.98;57.57
35419;BME280;21525;41.240;16.500;2022-08-11T13:18:21;101081.56;;;33.69;62.22
35419;BME280;21525;41.240;16.500;2022-08-11T13:20:50;101091.44;;;33.86;59.89
35419;BME280;21525;41.240;16.500;2022-08-11T13:23:18;101107.00;;;33.92;60.47
35419;BME280;21525;41.240;16.500;2022-08-11T13:25:45;101103.94;;;34.29;60.46
35419;BME280;21525;41.240;16.500;2022-08-11T13:28:11;101089.88;;;34.18;61.24
35419;BME280;21525;41.240;16.500;2022-08-11T13:30:37;101093.91;;;35.37;57.19
35419;BME280;21525;41.240;16.500;2022-08-11T13:33:24;101097.44;;;34.64;60.48
35419;BME280;21525;41.240;16.500;2022-08-11T13:35:52;101095.47;;;35.07;59.47
35419;BME280;21525;41.240;16.500;2022-08-11T13:38:21;101094.56;;;34.58;60.51
35419;BME280;21525;41.240;16.500;2022-08-11T13:40:51;101104.19;;;33.50;64.85
35419;BME280;21525;41.240;16.500;2022-08-11T13:43:19;101108.00;;;33.91;64.49
35419;BME280;21525;41.240;16.500;2022-08-11T13:45:46;101108.91;;;33.74;62.93
35419;BME280;21525;41.240;16.500;2022-08-11T13:48:15;101097.09;;;34.59;61.20
35419;BME280;21525;41.240;16.500;2022-08-11T13:50:43;101097.75;;;34.61;61.79
35419;BME280;21525;41.240;16.500;2022-08-11T13:53:28;101096.41;;;33.39;68.44
35419;BME280;21525;41.240;16.500;2022-08-11T13:55:59;101085.59;;;34.57;62.78
35419;BME280;21525;41.240;16.500;2022-08-11T13:58:26;101088.16;;;35.16;60.72
35419;BME280;21525;41.240;16.500;2022-08-11T14:00:53;101088.63;;;34.38;63.90
35419;BME280;21525;41.240;16.500;2022-08-11T14:03:24;101082.41;;;34.78;61.27
35419;BME280;21525;41.240;16.500;2022-08-11T14:05:51;101081.00;;;34.33;63.99
35419;BME280;21525;41.240;16.500;2022-08-11T14:08:27;101070.06;;;34.59;62.54
35419;BME280;21525;41.240;16.500;2022-08-11T14:10:59;101074.50;;;34.10;65.70
35419;BME280;21525;41.240;16.500;2022-08-11T14:13:45;101080.91;;;34.76;62.22
35419;BME280;21525;41.240;16.500;2022-08-11T14:16:18;101073.81;;;36.49;56.25
35419;BME280;21525;41.240;16.500;2022-08-11T14:18:47;101071.97;;;34.91;58.55
35419;BME280;21525;41.240;16.500;2022-08-11T14:21:16;101081.94;;;34.83;61.07
35419;BME280;21525;41.240;16.500;2022-08-11T14:24:02;101086.16;;;35.89;56.75
35419;BME280;21525;41.240;16.500;2022-08-11T14:26:30;101099.34;;;34.22;61.48
35419;BME280;21525;41.240;16.500;2022-08-11T14:29:09;101102.06;;;33.88;64.03
35419;BME280;21525;41.240;16.500;2022-08-11T14:31:46;101099.16;;;35.94;57.35
35419;BME280;21525;41.240;16.500;2022-08-11T14:34:13;101104.81;;;34.38;60.14
35419;BME280;21525;41.240;16.500;2022-08-11T14:36:44;101100.31;;;34.13;62.95
35419;BME280;21525;41.240;16.500;2022-08-11T14:39:16;101109.44;;;34.20;61.88
35419;BME280;21525;41.240;16.500;2022-08-11T14:41:46;101114.88;;;33.60;63.20
35419;BME280;21525;41.240;16.500;2022-08-11T14:44:32;101112.59;;;33.39;64.28
35419;BME280;21525;41.240;16.500;2022-08-11T14:47:17;101109.81;;;34.99;59.02
35419;BME280;21525;41.240;16.500;2022-08-11T14:49:44;101095.97;;;35.74;56.99
35419;BME280;21525;41.240;16.500;2022-08-11T14:52:15;101107.63;;;34.28;61.98
35419;BME280;21525;41.240;16.500;2022-08-11T14:54:43;101100.06;;;34.32;61.62
35419;BME280;21525;41.240;16.500;2022-08-11T14:57:30;101111.28;;;34.78;60.42
35419;BME280;21525;41.240;16.500;2022-08-11T14:59:59;101112.47;;;34.17;63.11
35419;BME280;21525;41.240;16.500;2022-08-11T15:02:26;101109.91;;;35.71;57.20
35419;BME280;21525;41.240;16.500;2022-08-11T15:05:11;101110.94;;;35.62;58.20
35419;BME280;21525;41.240;16.500;2022-08-11T15:07:38;101107.56;;;34.62;60.25
35419;BME280;21525;41.240;16.500;2022-08-11T15:10:07;101104.03;;;35.27;57.53
35419;BME280;21525;41.240;16.500;2022-08-11T15:12:35;101108.06;;;34.08;61.41
35419;BME280;21525;41.240;16.500;2022-08-11T15:15:04;101122.59;;;34.65;57.47
35419;BME280;21525;41.240;16.500;2022-08-11T15:17:51;101118.19;;;35.61;54.82
35419;BME280;21525;41.240;16.500;2022-08-11T15:20:19;101117.06;;;34.83;58.80
35419;BME280;21525;41.240;16.500;2022-08-11T15:23:04;101113.84;;;34.87;56.82
35419;BME280;21525;41.240;16.500;2022-08-11T15:25:56;101128.31;;;34.54;58.76
35419;BME280;21525;41.240;16.500;2022-08-11T15:28:26;101134.19;;;34.41;57.97
35419;BME280;21525;41.240;16.500;2022-08-11T15:31:11;101121.22;;;35.66;54.00
35419;BME280;21525;41.240;16.500;2022-08-11T15:33:58;101128.38;;;35.43;53.95
35419;BME280;21525;41.240;16.500;2022-08-11T15:36:46;101130.94;;;35.37;53.47
35419;BME280;21525;41.240;16.500;2022-08-11T15:39:35;101126.31;;;35.53;52.78
35419;BME280;21525;41.240;16.500;2022-08-11T15:42:22;101135.03;;;34.33;56.09
35419;BME280;21525;41.240;16.500;2022-08-11T15:45:08;101125.31;;;34.73;55.15
35419;BME280;21525;41.240;16.500;2022-08-11T15:47:56;101119.56;;;34.18;57.04
35419;BME280;21525;41.240;16.500;2022-08-11T15:50:29;101116.34;;;34.06;58.35
35419;BME280;21525;41.240;16.500;2022-08-11T15:53:07;101114.78;;;34.46;56.65
35419;BME280;21525;41.240;16.500;2022-08-11T15:55:36;101115.56;;;35.29;53.96
35419;BME280;21525;41.240;16.500;2022-08-11T15:58:06;101113.34;;;35.16;53.52
35419;BME280;21525;41.240;16.500;2022-08-11T16:00:51;101107.22;;;35.55;52.48
35419;BME280;21525;41.240;16.500;2022-08-11T16:03:49;101111.19;;;35.91;52.36
35419;BME280;21525;41.240;16.500;2022-08-11T16:06:38;101114.84;;;35.51;41.31
35419;BME280;21525;41.240;16.500;2022-08-11T16:09:05;101102.19;;;35.99;38.88
35419;BME280;21525;41.240;16.500;2022-08-11T16:11:33;101108.91;;;36.42;37.94
35419;BME280;21525;41.240;16.500;2022-08-11T16:14:02;101095.69;;;36.47;37.22
35419;BME280;21525;41.240;16.500;2022-08-11T16:16:48;101090.56;;;36.52;37.30
35419;BME280;21525;41.240;16.500;2022-08-11T16:19:18;101085.69;;;36.48;36.88
35419;BME280;21525;41.240;16.500;2022-08-11T16:21:46;101084.97;;;36.54;36.79
35419;BME280;21525;41.240;16.500;2022-08-11T16:24:16;101077.63;;;36.62;36.35
35419;BME280;21525;41.240;16.500;2022-08-11T16:26:44;101077.63;;;36.62;36.35
35419;BME280;21525;41.240;16.500;2022-08-11T16:29:15;101064.94;;;36.63;36.15
35419;BME280;21525;41.240;16.500;2022-08-11T16:31:41;101059.16;;;36.66;36.24
35419;BME280;21525;41.240;16.500;2022-08-11T16:34:28;101063.97;;;36.33;36.41
35419;BME280;21525;41.240;16.500;2022-08-11T16:37:13;101058.41;;;36.26;36.83
35419;BME280;21525;41.240;16.500;2022-08-11T16:39:58;101051.25;;;36.33;36.89
35419;BME280;21525;41.240;16.500;2022-08-11T16:42:24;101045.41;;;36.67;36.00
35419;BME280;21525;41.240;16.500;2022-08-11T16:45:08;101034.16;;;36.79;36.07
35419;BME280;21525;41.240;16.500;2022-08-11T16:47:53;101025.31;;;36.99;36.05
35419;BME280;21525;41.240;16.500;2022-08-11T16:50:20;101027.69;;;36.80;36.12
35419;BME280;21525;41.240;16.500;2022-08-11T16:52:46;101029.91;;;36.99;36.09
35419;BME280;21525;41.240;16.500;2022-08-11T16:55:11;101041.97;;;36.96;36.11
35419;BME280;21525;41.240;16.500;2022-08-11T16:57:39;101054.13;;;36.55;36.38
35419;BME280;21525;41.240;16.500;2022-08-11T17:00:25;101063.00;;;36.49;36.69
35419;BME280;21525;41.240;16.500;2022-08-11T17:02:53;101062.16;;;36.71;36.73
35419;BME280;21525;41.240;16.500;2022-08-11T17:05:43;101064.44;;;36.82;37.48
35419;BME280;21525;41.240;16.500;2022-08-11T17:08:47;101067.88;;;36.76;38.91
35419;BME280;21525;41.240;16.500;2022-08-11T17:11:56;101075.88;;;36.70;41.70